Time;durP1;ratioP1;P1;durP2;ratioP2;P2;SDS_P1;SDS_P2;PMS_P1;PMS_P2;Temp;Humidity;BMP_temperature;BMP_pressure;BME280_temperature;BME280_humidity;BME280_pressure;Samples;Min_cycle;Max_cycle;Signal;HPM_P1;HPM_P2
2023/02/08 00:00:21;;;;;;;38.17;27.70;;;3.40;99.90;;;;;;5013991;28;20256;-76
2023/02/08 00:02:49;;;;;;;35.20;26.63;;;3.40;99.90;;;;;;5013514;28;20218;-76
2023/02/08 00:05:16;;;;;;;37.08;28.80;;;3.40;99.90;;;;;;5013721;28;20311;-80
2023/02/08 00:07:45;;;;;;;37.10;28.25;;;3.40;99.90;;;;;;5014084;28;20265;-77
2023/02/08 00:10:12;;;;;;;37.55;28.60;;;3.40;99.90;;;;;;5013239;28;20558;-76
2023/02/08 00:12:40;;;;;;;37.22;30.95;;;3.40;99.90;;;;;;5014207;28;20669;-76
2023/02/08 00:15:10;;;;;;;36.90;27.13;;;3.40;99.90;;;;;;5012850;28;20300;-76
2023/02/08 00:17:36;;;;;;;34.70;28.05;;;3.40;99.90;;;;;;5011776;28;20250;-80
2023/02/08 00:20:04;;;;;;;40.13;31.33;;;3.40;99.90;;;;;;5012937;28;20226;-80
2023/02/08 00:22:31;;;;;;;37.50;28.40;;;3.40;99.90;;;;;;5013609;28;20226;-80
2023/02/08 00:24:58;;;;;;;44.75;34.13;;;3.40;99.90;;;;;;5013026;28;20230;-79
2023/02/08 00:27:27;;;;;;;40.03;31.83;;;3.30;99.90;;;;;;5013362;28;20237;-80
2023/02/08 00:29:54;;;;;;;38.35;30.85;;;3.30;99.90;;;;;;5013123;28;20280;-80
2023/02/08 00:32:23;;;;;;;48.92;34.00;;;3.30;99.90;;;;;;5012491;28;20218;-76
2023/02/08 00:34:50;;;;;;;41.67;32.90;;;3.20;99.90;;;;;;5013285;28;20225;-76
2023/02/08 00:37:17;;;;;;;41.17;31.52;;;3.20;99.90;;;;;;5002493;28;20230;-76
2023/02/08 00:39:44;;;;;;;37.45;28.45;;;3.20;99.90;;;;;;5012577;28;20307;-80
2023/02/08 00:42:14;;;;;;;39.28;31.67;;;3.20;99.90;;;;;;5013320;28;20283;-81
2023/02/08 00:44:41;;;;;;;38.78;30.10;;;3.20;99.90;;;;;;5014268;28;20237;-79
2023/02/08 00:47:08;;;;;;;38.58;30.08;;;3.10;99.90;;;;;;5015449;28;20304;-80
2023/02/08 00:49:36;;;;;;;38.97;30.33;;;3.10;99.90;;;;;;5014274;28;20672;-76
2023/02/08 00:52:03;;;;;;;42.47;30.35;;;3.20;99.90;;;;;;5012322;28;20303;-79
2023/02/08 00:54:30;;;;;;;46.15;31.48;;;3.10;99.90;;;;;;5013427;28;20593;-80
2023/02/08 00:56:57;;;;;;;43.17;30.40;;;3.10;99.90;;;;;;5013624;28;20222;-80
2023/02/08 00:59:24;;;;;;;36.38;27.73;;;3.10;99.90;;;;;;5011459;28;20230;-76
2023/02/08 01:01:54;;;;;;;40.85;29.85;;;3.10;99.90;;;;;;5012656;28;20248;-76
2023/02/08 01:04:21;;;;;;;39.20;29.15;;;3.10;99.90;;;;;;5012814;28;20241;-80
2023/02/08 01:06:50;;;;;;;36.70;27.55;;;3.10;99.90;;;;;;5013454;28;20284;-79
2023/02/08 01:09:16;;;;;;;33.08;25.63;;;3.10;99.90;;;;;;5012383;28;20238;-79
2023/02/08 01:11:44;;;;;;;38.03;27.63;;;3.10;99.90;;;;;;5013515;28;20314;-79
2023/02/08 01:14:11;;;;;;;35.63;27.13;;;3.10;99.90;;;;;;5012666;28;20296;-80
2023/02/08 01:16:38;;;;;;;35.28;26.95;;;3.10;99.90;;;;;;5012737;28;20233;-76
2023/02/08 01:19:06;;;;;;;37.05;27.38;;;3.10;99.90;;;;;;5012507;28;20264;-79
2023/02/08 01:21:36;;;;;;;32.58;25.90;;;3.00;99.90;;;;;;5013301;28;20222;-80
2023/02/08 01:24:05;;;;;;;40.13;26.98;;;3.00;99.90;;;;;;5012412;28;20648;-79
2023/02/08 01:26:32;;;;;;;38.00;28.13;;;3.00;99.90;;;;;;5002629;28;20218;-76
2023/02/08 01:29:04;;;;;;;41.95;29.65;;;3.10;99.90;;;;;;5015264;28;20234;-77
2023/02/08 01:31:34;;;;;;;38.25;28.63;;;3.00;99.90;;;;;;5016633;28;20217;-79
2023/02/08 01:34:02;;;;;;;41.22;30.45;;;3.00;99.90;;;;;;5016146;28;20284;-79
2023/02/08 01:36:30;;;;;;;39.15;28.25;;;3.00;99.90;;;;;;5015946;28;20226;-79
2023/02/08 01:38:57;;;;;;;49.30;35.05;;;3.00;99.90;;;;;;5016832;28;20759;-79
2023/02/08 01:41:28;;;;;;;46.83;33.95;;;2.90;99.90;;;;;;5015722;28;20308;-79
2023/02/08 01:44:05;;;;;;;44.42;31.88;;;2.90;99.90;;;;;;5016168;28;20334;-79
2023/02/08 01:46:33;;;;;;;52.80;33.80;;;2.90;99.90;;;;;;5016151;28;20229;-79
2023/02/08 01:49:04;;;;;;;41.97;31.35;;;2.90;99.90;;;;;;5016072;28;20353;-79
2023/02/08 01:51:38;;;;;;;45.80;31.90;;;2.90;99.90;;;;;;5016208;28;20234;-76
2023/02/08 01:54:08;;;;;;;42.30;31.13;;;2.90;99.90;;;;;;5006153;28;20256;-79
2023/02/08 01:56:40;;;;;;;41.45;30.02;;;2.90;99.90;;;;;;5014642;28;20230;-76
2023/02/08 01:59:13;;;;;;;44.28;30.33;;;2.90;99.90;;;;;;5015850;28;20237;-79
2023/02/08 02:01:43;;;;;;;40.78;31.00;;;2.90;99.90;;;;;;5015925;28;20218;-80
2023/02/08 02:04:10;;;;;;;33.95;26.85;;;2.90;99.90;;;;;;5015981;28;20284;-79
2023/02/08 02:06:41;;;;;;;37.80;26.77;;;2.80;99.90;;;;;;5015562;28;20687;-80
2023/02/08 02:09:28;;;;;;;36.83;28.35;;;2.80;99.90;;;;;;5015324;28;20218;-80
2023/02/08 02:11:57;;;;;;;35.92;25.90;;;2.80;99.90;;;;;;5016626;28;20644;-79
2023/02/08 02:14:25;;;;;;;34.50;26.48;;;2.80;99.90;;;;;;5015460;28;20224;-79
2023/02/08 02:16:52;;;;;;;29.60;24.90;;;2.80;99.90;;;;;;5014989;28;20283;-80
2023/02/08 02:19:31;;;;;;;35.60;26.58;;;2.80;99.90;;;;;;5014766;28;20226;-80
2023/02/08 02:22:07;;;;;;;37.25;26.08;;;2.70;99.90;;;;;;5016308;28;20232;-79
2023/02/08 02:25:03;;;;;;;35.45;27.40;;;2.80;99.90;;;;;;5015610;28;20276;-80
2023/02/08 02:28:04;;;;;;;31.98;25.75;;;2.70;99.90;;;;;;5015107;28;20676;-79
2023/02/08 02:31:17;;;;;;;35.83;27.10;;;2.70;99.90;;;;;;5015175;28;20228;-79
2023/02/08 02:34:04;;;;;;;39.28;27.05;;;2.70;99.90;;;;;;4955476;29;20235;-75
2023/02/08 02:36:41;;;;;;;34.03;24.38;;;2.70;99.90;;;;;;5015359;28;20635;-75
2023/02/08 02:39:18;;;;;;;36.60;25.65;;;2.70;99.90;;;;;;5015017;28;20660;-75
2023/02/08 02:44:47;;;;;;;29.58;23.50;;;2.70;99.90;;;;;;5015362;28;20710;-79
2023/02/08 02:47:24;;;;;;;30.30;22.55;;;2.70;99.90;;;;;;5015535;28;20237;-79
2023/02/08 02:49:56;;;;;;;26.98;22.33;;;2.70;99.90;;;;;;5015425;28;20303;-76
2023/02/08 02:52:32;;;;;;;33.65;24.48;;;2.70;99.90;;;;;;5014272;28;20230;-76
2023/02/08 02:55:04;;;;;;;31.13;23.27;;;2.80;99.90;;;;;;5015295;28;20628;-75
2023/02/08 02:57:34;;;;;;;32.03;22.75;;;2.70;99.90;;;;;;5014551;28;20230;-75
2023/02/08 03:00:10;;;;;;;28.58;22.23;;;2.70;99.90;;;;;;5015242;28;20234;-79
2023/02/08 03:02:37;;;;;;;33.70;23.10;;;2.70;99.90;;;;;;5014200;28;20226;-79
2023/02/08 03:05:07;;;;;;;32.38;23.20;;;2.70;99.90;;;;;;5014754;28;20233;-75
2023/02/08 03:07:59;;;;;;;31.98;24.23;;;2.70;99.90;;;;;;5015405;28;20225;-75
2023/02/08 03:10:41;;;;;;;32.80;23.45;;;2.60;99.90;;;;;;5008565;28;20241;-79
2023/02/08 03:13:18;;;;;;;31.05;23.88;;;2.60;99.90;;;;;;5016445;28;20238;-81
2023/02/08 03:15:56;;;;;;;33.58;25.20;;;2.60;99.90;;;;;;5016448;28;20307;-81
2023/02/08 03:18:32;;;;;;;31.27;22.30;;;2.60;99.90;;;;;;5014918;28;20573;-77
2023/02/08 03:21:08;;;;;;;25.23;20.40;;;2.50;99.90;;;;;;5014507;28;20249;-77
2023/02/08 03:23:41;;;;;;;29.17;23.10;;;2.40;99.90;;;;;;5014318;28;20284;-77
2023/02/08 03:26:16;;;;;;;30.52;21.85;;;2.40;99.90;;;;;;5014989;28;20229;-77
2023/02/08 03:28:50;;;;;;;27.02;22.88;;;2.30;99.90;;;;;;5013977;28;20256;-77
2023/02/08 03:31:24;;;;;;;27.77;22.13;;;2.20;99.90;;;;;;5015484;28;20284;-77
2023/02/08 03:33:56;;;;;;;28.05;21.65;;;2.20;99.90;;;;;;5014298;28;20222;-80
2023/02/08 03:36:31;;;;;;;29.05;19.65;;;2.10;99.90;;;;;;5014018;28;20316;-77
2023/02/08 03:39:02;;;;;;;30.90;21.77;;;2.10;99.90;;;;;;5014177;28;20309;-77
2023/02/08 03:41:34;;;;;;;33.17;21.85;;;2.10;99.90;;;;;;5014597;28;20685;-77
2023/02/08 03:44:05;;;;;;;29.30;20.48;;;2.10;99.90;;;;;;5014337;28;20277;-77
2023/02/08 03:46:37;;;;;;;25.25;19.20;;;2.10;99.90;;;;;;5014766;28;20250;-76
2023/02/08 03:49:09;;;;;;;30.17;21.73;;;2.10;99.90;;;;;;5014074;28;20222;-75
2023/02/08 03:51:39;;;;;;;26.70;19.75;;;2.00;99.90;;;;;;5013611;28;20257;-80
2023/02/08 03:54:11;;;;;;;30.58;20.40;;;2.00;99.90;;;;;;5013922;28;20218;-79
2023/02/08 03:56:43;;;;;;;26.15;19.30;;;2.00;99.90;;;;;;5005445;28;20226;-81
2023/02/08 03:59:17;;;;;;;24.67;20.35;;;2.00;99.90;;;;;;5014239;28;20621;-77
2023/02/08 04:01:48;;;;;;;24.63;17.50;;;2.00;99.90;;;;;;5014530;28;20238;-77
2023/02/08 04:04:18;;;;;;;25.15;18.48;;;2.10;99.90;;;;;;5014172;28;20652;-81
2023/02/08 04:06:46;;;;;;;23.40;18.58;;;2.10;99.90;;;;;;5014140;28;20222;-77
2023/02/08 04:09:16;;;;;;;29.63;21.48;;;2.10;99.90;;;;;;5012592;28;20392;-77
2023/02/08 04:11:43;;;;;;;23.90;19.65;;;2.10;99.90;;;;;;5014293;28;20313;-80
2023/02/08 04:14:13;;;;;;;24.70;18.55;;;2.10;99.90;;;;;;5013754;28;20723;-77
2023/02/08 04:16:40;;;;;;;25.23;19.10;;;2.10;99.90;;;;;;5013700;28;20229;-77
2023/02/08 04:19:07;;;;;;;28.70;20.42;;;2.10;99.90;;;;;;5013264;28;20265;-80
2023/02/08 04:21:34;;;;;;;22.95;18.17;;;2.20;99.90;;;;;;5014086;28;20230;-77
2023/02/08 04:24:02;;;;;;;23.20;19.02;;;2.10;99.90;;;;;;5012767;28;20253;-81
2023/02/08 04:26:29;;;;;;;24.13;18.60;;;2.10;99.90;;;;;;5013292;28;20225;-80
2023/02/08 04:28:56;;;;;;;28.15;18.50;;;2.10;99.90;;;;;;5013623;28;20225;-80
2023/02/08 04:31:23;;;;;;;23.88;18.52;;;2.10;99.90;;;;;;5013287;28;20687;-81
2023/02/08 04:33:50;;;;;;;23.88;17.50;;;2.10;99.90;;;;;;5013777;28;20747;-80
2023/02/08 04:36:17;;;;;;;26.25;17.73;;;2.10;99.90;;;;;;5013359;28;20291;-80
2023/02/08 04:38:45;;;;;;;28.10;19.58;;;2.10;99.90;;;;;;5012938;28;20283;-80
2023/02/08 04:41:13;;;;;;;29.77;19.80;;;2.10;99.90;;;;;;5012225;28;20237;-80
2023/02/08 04:43:40;;;;;;;25.13;19.05;;;2.10;99.90;;;;;;5013018;28;20225;-77
2023/02/08 04:46:09;;;;;;;27.33;19.00;;;2.10;99.90;;;;;;5013179;28;20233;-80
2023/02/08 04:48:36;;;;;;;22.92;17.58;;;2.10;99.90;;;;;;5002234;28;20604;-80
2023/02/08 04:51:03;;;;;;;24.40;17.88;;;2.10;99.90;;;;;;5012981;28;20716;-80
2023/02/08 04:53:30;;;;;;;25.45;17.90;;;2.10;99.90;;;;;;5013225;28;20241;-76
2023/02/08 04:56:02;;;;;;;26.55;19.35;;;2.10;99.90;;;;;;5013471;28;20245;-76
2023/02/08 04:58:31;;;;;;;30.08;19.05;;;2.10;99.90;;;;;;5012613;28;20233;-76
2023/02/08 05:00:58;;;;;;;24.17;20.35;;;2.10;99.90;;;;;;5013565;28;20234;-80
2023/02/08 05:03:25;;;;;;;29.27;22.52;;;2.10;99.90;;;;;;5012440;28;20226;-76
2023/02/08 05:06:00;;;;;;;27.02;18.08;;;2.00;99.90;;;;;;5012995;28;20544;-80
2023/02/08 05:08:27;;;;;;;26.50;18.17;;;2.00;99.90;;;;;;5012958;28;20287;-79
2023/02/08 05:10:54;;;;;;;21.73;17.33;;;2.00;99.90;;;;;;5012864;28;20280;-80
2023/02/08 05:13:21;;;;;;;23.92;19.88;;;2.00;99.90;;;;;;5012617;28;20283;-79
2023/02/08 05:15:49;;;;;;;26.40;19.55;;;2.00;99.90;;;;;;5012841;28;20226;-79
2023/02/08 05:18:16;;;;;;;27.77;20.90;;;2.00;99.90;;;;;;5013023;28;20704;-76
2023/02/08 05:20:43;;;;;;;27.08;19.70;;;1.90;99.90;;;;;;5012823;28;20222;-76
2023/02/08 05:23:11;;;;;;;28.13;19.55;;;2.00;99.90;;;;;;5002355;28;20229;-75
2023/02/08 05:25:41;;;;;;;27.65;20.27;;;2.00;99.90;;;;;;5011758;28;20225;-75
2023/02/08 05:28:08;;;;;;;24.38;19.23;;;2.00;99.90;;;;;;5013272;28;20229;-75
2023/02/08 05:30:38;;;;;;;26.70;21.02;;;2.00;99.90;;;;;;5012594;28;20233;-75
2023/02/08 05:33:07;;;;;;;22.27;18.95;;;2.00;99.90;;;;;;5012826;28;20245;-80
2023/02/08 05:35:34;;;;;;;28.42;20.20;;;2.00;99.90;;;;;;5012473;28;20272;-79
2023/02/08 05:38:01;;;;;;;23.73;18.00;;;2.00;99.90;;;;;;5011676;28;20273;-75
2023/02/08 05:40:28;;;;;;;29.90;20.42;;;2.00;99.90;;;;;;5012066;28;20238;-79
2023/02/08 05:42:55;;;;;;;26.63;19.77;;;2.00;99.90;;;;;;5012424;28;20324;-79
2023/02/08 05:45:22;;;;;;;28.52;20.70;;;2.00;99.90;;;;;;5011803;28;20244;-79
2023/02/08 05:47:49;;;;;;;28.88;20.58;;;2.00;99.90;;;;;;5013322;28;20311;-79
2023/02/08 05:50:18;;;;;;;27.17;20.52;;;1.90;99.90;;;;;;5011566;28;20230;-76
2023/02/08 05:52:45;;;;;;;27.55;20.15;;;1.90;99.90;;;;;;4894379;28;20592;-76
2023/02/08 05:55:12;;;;;;;33.42;21.27;;;1.90;99.90;;;;;;4894786;28;20318;-80
2023/02/08 05:57:39;;;;;;;26.30;20.10;;;1.90;99.90;;;;;;4894619;28;20310;-79
2023/02/08 06:00:07;;;;;;;25.75;20.67;;;1.80;99.90;;;;;;4894603;28;20230;-80
2023/02/08 06:02:34;;;;;;;30.63;21.00;;;1.80;99.90;;;;;;4895068;28;20230;-80
2023/02/08 06:05:01;;;;;;;28.88;19.48;;;1.80;99.90;;;;;;4894680;28;20236;-75
2023/02/08 06:07:35;;;;;;;28.95;18.95;;;1.80;99.90;;;;;;4893791;28;20238;-76
2023/02/08 06:10:03;;;;;;;27.60;19.13;;;1.70;99.90;;;;;;4894383;28;20234;-76
2023/02/08 06:12:29;;;;;;;26.85;19.17;;;1.70;99.90;;;;;;4893874;28;20320;-76
2023/02/08 06:14:56;;;;;;;30.05;20.75;;;1.60;99.90;;;;;;4896080;28;20679;-76
2023/02/08 06:17:23;;;;;;;33.85;21.17;;;1.50;99.90;;;;;;4897297;28;20226;-77
2023/02/08 06:19:54;;;;;;;30.33;20.10;;;1.50;99.90;;;;;;4899011;28;20238;-77
2023/02/08 06:22:20;;;;;;;26.65;19.67;;;1.30;99.90;;;;;;4969586;28;20254;-77
2023/02/08 06:24:49;;;;;;;26.88;20.30;;;1.30;99.90;;;;;;4897346;28;20226;-77
2023/02/08 06:27:18;;;;;;;28.60;19.42;;;1.30;99.90;;;;;;4962707;28;20296;-80
2023/02/08 06:29:45;;;;;;;32.75;21.98;;;1.30;99.90;;;;;;4975340;28;20234;-80
2023/02/08 06:32:12;;;;;;;28.92;20.00;;;1.20;99.90;;;;;;4897796;28;20268;-77
2023/02/08 06:34:39;;;;;;;29.65;22.35;;;1.10;99.90;;;;;;4897065;28;20318;-80
2023/02/08 06:37:05;;;;;;;33.88;19.70;;;1.10;99.90;;;;;;4897445;28;20246;-77
2023/02/08 06:39:33;;;;;;;26.30;20.52;;;1.10;99.90;;;;;;4897217;28;20300;-77
2023/02/08 06:42:01;;;;;;;27.55;19.67;;;1.10;99.90;;;;;;4896775;28;20233;-80
2023/02/08 06:44:28;;;;;;;33.80;23.75;;;1.10;99.90;;;;;;4896624;28;20297;-80
2023/02/08 06:46:55;;;;;;;31.00;19.73;;;1.10;99.90;;;;;;4896322;28;20242;-76
2023/02/08 06:49:22;;;;;;;27.70;20.30;;;1.10;99.90;;;;;;4896992;28;20230;-76
2023/02/08 06:51:57;;;;;;;31.55;21.15;;;1.10;99.90;;;;;;4969535;28;20233;-76
2023/02/08 06:54:24;;;;;;;30.77;20.60;;;1.00;99.90;;;;;;5015631;28;20691;-76
2023/02/08 06:56:51;;;;;;;30.70;22.35;;;1.00;99.90;;;;;;5015269;28;20688;-79
2023/02/08 06:59:20;;;;;;;34.83;21.73;;;1.00;99.90;;;;;;5015086;28;20595;-80
2023/02/08 07:01:47;;;;;;;33.20;20.80;;;1.10;99.90;;;;;;5014024;28;20227;-76
2023/02/08 07:04:14;;;;;;;32.67;22.13;;;1.10;99.90;;;;;;5015324;28;20221;-76
2023/02/08 07:06:41;;;;;;;27.88;21.00;;;1.00;99.90;;;;;;5015193;28;20238;-76
2023/02/08 07:09:08;;;;;;;30.00;20.55;;;1.10;99.90;;;;;;5015154;28;20244;-79
2023/02/08 07:11:35;;;;;;;26.23;20.95;;;1.10;99.90;;;;;;5014582;28;20246;-76
2023/02/08 07:14:02;;;;;;;28.42;20.85;;;1.10;99.90;;;;;;5014286;28;20233;-76
2023/02/08 07:16:31;;;;;;;31.52;21.33;;;1.20;99.90;;;;;;5015268;28;20237;-80
2023/02/08 07:18:58;;;;;;;31.95;20.17;;;1.20;99.90;;;;;;5013979;28;20276;-80
2023/02/08 07:21:25;;;;;;;31.02;21.63;;;1.20;99.90;;;;;;5014419;28;20226;-76
2023/02/08 07:23:52;;;;;;;30.45;21.10;;;1.20;99.90;;;;;;5012516;28;20565;-76
2023/02/08 07:26:19;;;;;;;30.60;20.55;;;1.20;99.90;;;;;;5013646;28;20276;-77
2023/02/08 07:28:47;;;;;;;30.92;21.30;;;1.20;99.90;;;;;;5013612;28;20248;-80
2023/02/08 07:31:16;;;;;;;29.83;21.55;;;1.20;99.90;;;;;;5013118;28;21003;-77
2023/02/08 07:33:45;;;;;;;29.17;22.58;;;1.20;99.90;;;;;;5013347;28;20619;-76
2023/02/08 07:36:12;;;;;;;32.72;22.08;;;1.20;99.90;;;;;;5012184;28;20623;-76
2023/02/08 07:38:40;;;;;;;35.90;21.42;;;1.20;99.90;;;;;;5014406;28;20264;-76
2023/02/08 07:41:09;;;;;;;30.48;22.58;;;1.20;99.90;;;;;;5012225;28;20230;-76
2023/02/08 07:43:36;;;;;;;32.40;23.42;;;1.20;99.90;;;;;;5013870;28;20230;-76
2023/02/08 07:46:08;;;;;;;31.60;23.67;;;1.30;99.90;;;;;;5013474;28;20396;-76
2023/02/08 07:48:35;;;;;;;30.52;21.38;;;1.30;99.90;;;;;;5013373;28;20218;-76
2023/02/08 07:51:04;;;;;;;33.47;23.27;;;1.30;99.90;;;;;;5012272;28;20288;-76
2023/02/08 07:53:32;;;;;;;28.33;20.25;;;1.30;99.90;;;;;;5013865;28;20265;-76
2023/02/08 07:55:59;;;;;;;39.08;20.83;;;1.30;99.90;;;;;;5012722;28;20249;-76
2023/02/08 07:58:28;;;;;;;31.38;20.77;;;1.30;99.90;;;;;;5013700;28;20226;-76
2023/02/08 08:00:55;;;;;;;26.73;21.15;;;1.40;99.90;;;;;;5012416;28;20702;-76
2023/02/08 08:03:24;;;;;;;25.48;18.50;;;1.40;99.90;;;;;;5012565;28;20280;-76
2023/02/08 08:05:52;;;;;;;30.63;20.90;;;1.40;99.90;;;;;;5012504;28;20222;-76
2023/02/08 08:08:20;;;;;;;24.42;20.67;;;1.40;99.90;;;;;;5013477;28;20233;-76
2023/02/08 08:10:48;;;;;;;31.10;21.42;;;1.40;99.90;;;;;;5013022;28;20230;-77
2023/02/08 08:13:15;;;;;;;34.17;21.00;;;1.50;99.90;;;;;;5012755;28;20229;-80
2023/02/08 08:15:42;;;;;;;35.08;21.23;;;1.50;99.90;;;;;;5012576;28;20341;-76
2023/02/08 08:18:09;;;;;;;24.40;19.05;;;1.40;99.90;;;;;;5011694;28;20276;-76
2023/02/08 08:20:36;;;;;;;24.45;19.65;;;1.40;99.90;;;;;;5012731;28;20699;-76
2023/02/08 08:23:05;;;;;;;30.98;19.95;;;1.30;99.90;;;;;;5012661;28;20695;-77
2023/02/08 08:25:33;;;;;;;30.10;20.98;;;1.30;99.90;;;;;;5012692;28;20308;-76
2023/02/08 08:28:01;;;;;;;29.33;21.50;;;1.40;99.90;;;;;;5012941;28;20237;-76
2023/02/08 08:30:28;;;;;;;32.72;22.75;;;1.40;99.90;;;;;;5013805;28;20222;-80
2023/02/08 08:32:55;;;;;;;33.22;22.63;;;1.40;99.90;;;;;;5013411;28;20230;-80
2023/02/08 08:35:23;;;;;;;29.30;20.70;;;1.50;99.90;;;;;;5013789;28;20241;-79
2023/02/08 08:37:50;;;;;;;34.47;22.17;;;1.50;99.90;;;;;;5011731;28;20305;-77
2023/02/08 08:40:17;;;;;;;31.17;21.50;;;1.50;99.90;;;;;;5012852;28;20230;-79
2023/02/08 08:42:45;;;;;;;42.60;24.23;;;1.60;99.90;;;;;;5012808;28;20319;-80
2023/02/08 08:45:12;;;;;;;32.47;21.35;;;1.60;99.90;;;;;;5002150;28;20232;-80
2023/02/08 08:47:39;;;;;;;34.25;24.52;;;1.60;99.90;;;;;;5013428;28;20241;-80
2023/02/08 08:50:09;;;;;;;31.30;23.60;;;1.70;99.90;;;;;;5012696;28;20613;-79
2023/02/08 08:52:38;;;;;;;34.55;23.67;;;1.70;99.90;;;;;;5012587;28;20230;-80
2023/02/08 08:55:06;;;;;;;31.95;23.45;;;1.80;99.90;;;;;;5012488;28;20630;-79
2023/02/08 08:57:33;;;;;;;33.90;23.90;;;1.80;99.90;;;;;;5013443;28;20718;-80
2023/02/08 09:00:01;;;;;;;34.80;23.00;;;1.90;99.90;;;;;;5012833;28;20227;-79
2023/02/08 09:02:28;;;;;;;31.00;22.33;;;1.80;99.90;;;;;;5012362;28;20225;-76
2023/02/08 09:04:58;;;;;;;40.72;22.88;;;1.90;99.90;;;;;;5012957;28;20218;-76
2023/02/08 09:07:25;;;;;;;28.58;23.17;;;1.90;99.90;;;;;;5013293;28;20226;-76
2023/02/08 09:09:52;;;;;;;34.75;23.70;;;1.90;99.90;;;;;;5012904;28;20232;-76
2023/02/08 09:12:19;;;;;;;37.40;23.17;;;1.90;99.90;;;;;;5013156;28;20230;-76
2023/02/08 09:14:46;;;;;;;31.17;22.83;;;1.90;99.90;;;;;;5012900;28;20593;-76
2023/02/08 09:17:15;;;;;;;32.95;24.08;;;1.90;99.90;;;;;;5012606;28;20262;-77
2023/02/08 09:19:42;;;;;;;32.10;23.23;;;1.90;99.90;;;;;;5013381;28;20229;-77
2023/02/08 09:22:09;;;;;;;35.85;24.63;;;1.90;99.90;;;;;;5012251;28;20320;-80
2023/02/08 09:24:36;;;;;;;33.63;24.60;;;1.90;99.90;;;;;;5013670;28;20544;-80
2023/02/08 09:27:04;;;;;;;40.67;27.08;;;2.00;99.90;;;;;;5012903;28;20250;-77
2023/02/08 09:29:34;;;;;;;36.40;24.13;;;2.00;99.90;;;;;;5011976;28;20226;-76
2023/02/08 09:32:01;;;;;;;35.25;23.00;;;2.10;99.90;;;;;;5011771;28;20222;-76
2023/02/08 09:34:30;;;;;;;34.78;24.33;;;2.10;99.90;;;;;;5013399;28;20222;-76
2023/02/08 09:37:05;;;;;;;38.90;24.55;;;2.20;99.90;;;;;;5012585;28;20226;-79
2023/02/08 09:39:31;;;;;;;37.03;26.85;;;2.30;99.90;;;;;;5012896;28;20225;-80
2023/02/08 09:42:15;;;;;;;37.83;27.45;;;2.20;99.90;;;;;;5012879;28;20633;-80
2023/02/08 09:44:55;;;;;;;45.05;26.80;;;2.30;99.90;;;;;;5012695;28;20662;-76
2023/02/08 09:47:28;;;;;;;37.60;25.00;;;2.30;99.90;;;;;;5012690;28;20695;-77
2023/02/08 09:50:03;;;;;;;39.15;25.75;;;2.30;99.90;;;;;;5014413;28;20562;-80
2023/02/08 09:52:38;;;;;;;39.47;26.65;;;2.40;99.90;;;;;;5015495;28;20229;-79
2023/02/08 09:55:24;;;;;;;43.30;29.05;;;2.30;99.90;;;;;;5017117;28;20221;-80
2023/02/08 09:57:53;;;;;;;41.03;27.08;;;2.40;99.90;;;;;;5015918;28;20237;-80
2023/02/08 10:00:30;;;;;;;36.47;26.40;;;2.30;99.90;;;;;;5016584;28;20254;-80
2023/02/08 10:02:59;;;;;;;42.95;26.27;;;2.40;99.90;;;;;;5015676;28;20300;-81
2023/02/08 10:05:34;;;;;;;34.72;26.70;;;2.50;99.90;;;;;;5017020;28;20236;-77
2023/02/08 10:08:01;;;;;;;42.72;27.45;;;2.50;99.90;;;;;;5015911;28;20313;-77
2023/02/08 10:10:39;;;;;;;36.90;26.58;;;2.60;99.90;;;;;;5016630;28;20234;-80
2023/02/08 10:13:22;;;;;;;37.47;27.80;;;2.70;99.90;;;;;;5015694;28;20276;-76
2023/02/08 10:15:53;;;;;;;38.40;26.48;;;2.60;99.90;;;;;;5015785;28;20236;-77
2023/02/08 10:18:34;;;;;;;37.55;26.38;;;2.60;99.90;;;;;;5016352;28;20249;-80
2023/02/08 10:21:27;;;;;;;35.47;26.15;;;2.60;99.90;;;;;;5015841;28;20319;-80
2023/02/08 10:24:16;;;;;;;37.88;26.65;;;2.70;99.90;;;;;;5015160;28;20222;-80
2023/02/08 10:26:47;;;;;;;31.27;25.98;;;2.70;99.90;;;;;;5014359;28;20237;-77
2023/02/08 10:29:41;;;;;;;36.63;26.52;;;2.70;99.90;;;;;;5007112;28;20222;-77
2023/02/08 10:32:27;;;;;;;36.88;25.88;;;2.70;99.90;;;;;;5015369;28;20229;-80
2023/02/08 10:34:59;;;;;;;35.92;26.67;;;2.80;99.90;;;;;;5014462;28;20308;-76
2023/02/08 10:37:33;;;;;;;35.42;24.83;;;2.80;99.90;;;;;;5015556;28;20684;-77
2023/02/08 10:40:19;;;;;;;37.65;25.67;;;2.90;99.90;;;;;;5014551;28;20342;-79
2023/02/08 10:42:51;;;;;;;40.10;26.73;;;3.00;99.90;;;;;;5014335;28;20236;-79
2023/02/08 10:45:24;;;;;;;37.15;27.33;;;3.10;99.90;;;;;;5015541;28;20610;-77
2023/02/08 10:47:54;;;;;;;38.92;25.58;;;3.20;99.90;;;;;;5014569;28;20230;-79
2023/02/08 10:50:31;;;;;;;40.33;26.08;;;3.20;99.90;;;;;;5015470;28;20546;-80
2023/02/08 10:53:01;;;;;;;42.28;29.10;;;3.20;99.90;;;;;;5014910;28;20237;-76
2023/02/08 10:55:31;;;;;;;39.55;28.42;;;3.30;99.90;;;;;;5014885;28;20699;-75
2023/02/08 10:58:00;;;;;;;39.33;26.48;;;3.40;99.90;;;;;;5014749;28;20288;-80
2023/02/08 11:00:31;;;;;;;34.05;24.08;;;3.50;99.90;;;;;;5014694;28;20261;-80
2023/02/08 11:03:03;;;;;;;38.92;27.35;;;3.50;99.80;;;;;;5013663;28;20680;-76
2023/02/08 11:05:35;;;;;;;40.78;27.38;;;3.50;99.60;;;;;;5013873;28;20317;-79
2023/02/08 11:08:08;;;;;;;33.78;25.92;;;3.60;99.60;;;;;;5003725;28;20248;-79
2023/02/08 11:10:36;;;;;;;43.15;27.83;;;3.60;99.40;;;;;;5004140;28;20222;-76
2023/02/08 11:13:07;;;;;;;34.75;26.15;;;3.50;99.10;;;;;;5013333;28;20244;-76
2023/02/08 11:15:39;;;;;;;34.72;26.23;;;3.60;99.40;;;;;;5014957;28;20222;-80
2023/02/08 11:18:14;;;;;;;33.92;25.50;;;3.60;99.40;;;;;;5014095;28;20233;-77
2023/02/08 11:20:42;;;;;;;35.97;25.35;;;3.60;99.20;;;;;;5012475;28;20248;-80
2023/02/08 11:23:21;;;;;;;33.13;24.50;;;3.60;99.20;;;;;;5000564;28;20241;-80
2023/02/08 11:25:51;;;;;;;31.35;23.70;;;3.70;99.40;;;;;;5013434;28;20218;-76
2023/02/08 11:28:29;;;;;;;36.30;25.15;;;3.70;99.10;;;;;;5012730;28;20249;-76
2023/02/08 11:31:07;;;;;;;31.48;23.00;;;3.70;99.00;;;;;;5013869;28;20221;-80
2023/02/08 11:33:37;;;;;;;34.20;24.98;;;3.80;98.80;;;;;;5001789;28;20231;-76
2023/02/08 11:36:09;;;;;;;29.23;22.88;;;3.80;98.60;;;;;;5013354;28;20601;-80
2023/02/08 11:38:42;;;;;;;34.25;26.30;;;3.80;98.60;;;;;;5013298;28;20698;-80
2023/02/08 11:41:17;;;;;;;34.15;24.60;;;3.80;98.40;;;;;;5014371;28;20260;-80
2023/02/08 11:43:57;;;;;;;29.48;24.13;;;3.80;98.40;;;;;;5013669;28;20636;-80
2023/02/08 11:46:26;;;;;;;37.08;22.60;;;3.80;98.20;;;;;;5013138;28;20249;-80
2023/02/08 11:48:56;;;;;;;33.72;24.15;;;3.80;98.20;;;;;;5013952;28;20230;-80
2023/02/08 11:51:28;;;;;;;35.45;25.40;;;3.90;98.20;;;;;;5002347;28;20238;-77
2023/02/08 11:53:57;;;;;;;29.83;21.65;;;3.90;98.00;;;;;;5013980;28;20229;-76
2023/02/08 11:56:29;;;;;;;35.17;23.83;;;3.90;98.10;;;;;;5003903;28;20230;-77
2023/02/08 11:58:59;;;;;;;31.83;25.02;;;4.00;97.90;;;;;;5013757;28;20229;-76
2023/02/08 12:01:29;;;;;;;32.33;24.10;;;4.00;98.10;;;;;;5013764;28;20230;-80
2023/02/08 12:03:59;;;;;;;37.42;24.17;;;4.10;97.80;;;;;;5014212;28;20285;-80
2023/02/08 12:06:57;;;;;;;31.15;23.70;;;4.20;97.80;;;;;;5013947;28;20226;-80
2023/02/08 12:09:47;;;;;;;28.50;22.77;;;4.20;97.80;;;;;;5006295;28;20612;-76
2023/02/08 12:12:22;;;;;;;39.40;26.20;;;4.10;97.60;;;;;;5014386;28;20280;-79
2023/02/08 12:15:01;;;;;;;33.63;25.95;;;4.20;97.70;;;;;;5013897;28;20260;-80
2023/02/08 12:17:53;;;;;;;34.20;24.55;;;4.30;97.90;;;;;;5013958;28;20312;-79
2023/02/08 12:20:36;;;;;;;36.10;26.10;;;4.30;97.80;;;;;;5014106;28;20230;-80
2023/02/08 12:23:20;;;;;;;35.83;24.83;;;4.40;97.60;;;;;;5015224;28;20241;-76
2023/02/08 12:25:56;;;;;;;33.22;25.42;;;4.50;97.40;;;;;;5013974;28;20214;-76
2023/02/08 12:28:32;;;;;;;28.15;22.73;;;4.60;97.40;;;;;;5013995;28;20647;-76
2023/02/08 12:31:09;;;;;;;30.63;22.00;;;4.60;97.20;;;;;;5013412;28;20292;-79
2023/02/08 12:33:54;;;;;;;34.75;24.20;;;4.60;97.00;;;;;;5013870;28;20240;-79
2023/02/08 12:36:39;;;;;;;37.35;23.73;;;4.60;97.00;;;;;;5013694;28;20217;-79
2023/02/08 14:05:43;;;;;;;29.80;22.30;;;4.90;95.60;;;;;;5005023;28;20240;-80
2023/02/08 14:08:22;;;;;;;38.38;23.27;;;4.90;95.30;;;;;;5015462;28;20550;-80
2023/02/08 14:11:01;;;;;;;29.27;21.95;;;4.80;95.40;;;;;;5016153;28;20234;-77
2023/02/08 14:13:35;;;;;;;31.45;22.08;;;4.80;95.50;;;;;;5016463;28;20599;-79
2023/02/08 14:16:29;;;;;;;27.88;21.92;;;4.80;95.80;;;;;;5016455;28;20551;-75
2023/02/08 14:18:58;;;;;;;37.70;23.42;;;4.90;95.60;;;;;;5015907;28;20648;-76
2023/02/08 14:21:32;;;;;;;32.35;22.35;;;4.80;95.40;;;;;;5016058;28;20226;-79
2023/02/08 14:24:24;;;;;;;28.77;21.15;;;4.90;95.50;;;;;;5006295;28;20643;-77